sensor_id;sensor_type;location;lat;lon;timestamp;P1;durP1;ratioP1;P2;durP2;ratioP2
6485;SDS011;3276;48.490;9.222;2024-01-15T00:02:15;16.07;;;9.83;;
6485;SDS011;3276;48.490;9.222;2024-01-15T00:04:40;17.50;;;10.40;;
6485;SDS011;3276;48.490;9.222;2024-01-15T00:07:07;17.10;;;9.70;;
6485;SDS011;3276;48.490;9.222;2024-01-15T00:09:33;14.13;;;8.13;;
6485;SDS011;3276;48.490;9.222;2024-01-15T00:11:59;13.40;;;8.17;;
6485;SDS011;3276;48.490;9.222;2024-01-15T00:14:25;16.92;;;9.15;;
6485;SDS011;3276;48.490;9.222;2024-01-15T00:16:51;14.95;;;9.80;;
6485;SDS011;3276;48.490;9.222;2024-01-15T00:19:20;15.10;;;8.23;;
6485;SDS011;3276;48.490;9.222;2024-01-15T00:21:46;16.60;;;10.32;;
6485;SDS011;3276;48.490;9.222;2024-01-15T00:24:12;15.17;;;8.23;;
6485;SDS011;3276;48.490;9.222;2024-01-15T00:26:37;19.83;;;9.57;;
6485;SDS011;3276;48.490;9.222;2024-01-15T00:29:03;16.40;;;10.30;;
6485;SDS011;3276;48.490;9.222;2024-01-15T00:31:29;18.07;;;9.33;;
6485;SDS011;3276;48.490;9.222;2024-01-15T00:33:55;19.75;;;11.60;;
6485;SDS011;3276;48.490;9.222;2024-01-15T00:36:22;17.15;;;9.27;;
6485;SDS011;3276;48.490;9.222;2024-01-15T00:38:48;19.95;;;11.05;;
6485;SDS011;3276;48.490;9.222;2024-01-15T00:41:14;16.80;;;8.13;;
6485;SDS011;3276;48.490;9.222;2024-01-15T00:43:40;12.75;;;6.82;;
6485;SDS011;3276;48.490;9.222;2024-01-15T00:46:06;19.67;;;10.50;;
6485;SDS011;3276;48.490;9.222;2024-01-15T00:48:32;13.83;;;8.43;;
6485;SDS011;3276;48.490;9.222;2024-01-15T00:50:57;18.27;;;11.30;;
6485;SDS011;3276;48.490;9.222;2024-01-15T00:53:23;15.30;;;8.67;;
6485;SDS011;3276;48.490;9.222;2024-01-15T00:55:57;13.65;;;8.70;;
6485;SDS011;3276;48.490;9.222;2024-01-15T00:58:23;15.37;;;8.07;;
6485;SDS011;3276;48.490;9.222;2024-01-15T01:00:49;16.73;;;9.60;;
6485;SDS011;3276;48.490;9.222;2024-01-15T01:03:15;17.27;;;9.37;;
6485;SDS011;3276;48.490;9.222;2024-01-15T01:05:41;13.68;;;7.68;;
6485;SDS011;3276;48.490;9.222;2024-01-15T01:08:06;19.57;;;7.67;;
6485;SDS011;3276;48.490;9.222;2024-01-15T01:10:32;15.20;;;8.50;;
6485;SDS011;3276;48.490;9.222;2024-01-15T01:12:57;17.67;;;9.80;;
6485;SDS011;3276;48.490;9.222;2024-01-15T01:15:23;17.17;;;8.77;;
6485;SDS011;3276;48.490;9.222;2024-01-15T01:17:55;15.35;;;7.25;;
6485;SDS011;3276;48.490;9.222;2024-01-15T01:20:20;12.83;;;7.50;;
6485;SDS011;3276;48.490;9.222;2024-01-15T01:22:46;14.73;;;7.80;;
6485;SDS011;3276;48.490;9.222;2024-01-15T01:25:12;17.70;;;8.20;;
6485;SDS011;3276;48.490;9.222;2024-01-15T01:27:37;12.43;;;6.80;;
6485;SDS011;3276;48.490;9.222;2024-01-15T01:30:03;15.50;;;9.00;;
6485;SDS011;3276;48.490;9.222;2024-01-15T01:32:29;13.68;;;8.02;;
6485;SDS011;3276;48.490;9.222;2024-01-15T01:34:55;13.17;;;7.60;;
6485;SDS011;3276;48.490;9.222;2024-01-15T01:37:20;16.90;;;8.57;;
6485;SDS011;3276;48.490;9.222;2024-01-15T01:39:46;11.90;;;8.60;;
6485;SDS011;3276;48.490;9.222;2024-01-15T01:42:11;13.57;;;7.67;;
6485;SDS011;3276;48.490;9.222;2024-01-15T01:44:37;17.83;;;7.50;;
6485;SDS011;3276;48.490;9.222;2024-01-15T01:47:03;13.80;;;8.23;;
6485;SDS011;3276;48.490;9.222;2024-01-15T01:49:30;13.32;;;7.70;;
6485;SDS011;3276;48.490;9.222;2024-01-15T01:51:56;14.47;;;7.97;;
6485;SDS011;3276;48.490;9.222;2024-01-15T01:54:23;18.88;;;9.88;;
6485;SDS011;3276;48.490;9.222;2024-01-15T01:56:51;14.07;;;6.82;;
6485;SDS011;3276;48.490;9.222;2024-01-15T01:59:17;15.93;;;8.60;;
6485;SDS011;3276;48.490;9.222;2024-01-15T02:01:43;11.93;;;7.20;;
6485;SDS011;3276;48.490;9.222;2024-01-15T02:04:10;14.68;;;8.40;;
6485;SDS011;3276;48.490;9.222;2024-01-15T02:06:38;12.60;;;7.13;;
6485;SDS011;3276;48.490;9.222;2024-01-15T02:09:04;12.23;;;7.60;;
6485;SDS011;3276;48.490;9.222;2024-01-15T02:11:30;14.07;;;7.97;;
6485;SDS011;3276;48.490;9.222;2024-01-15T02:13:56;13.13;;;6.93;;
6485;SDS011;3276;48.490;9.222;2024-01-15T02:16:22;16.43;;;7.87;;
6485;SDS011;3276;48.490;9.222;2024-01-15T02:18:48;16.40;;;8.37;;
6485;SDS011;3276;48.490;9.222;2024-01-15T02:21:13;12.73;;;9.87;;
6485;SDS011;3276;48.490;9.222;2024-01-15T02:23:39;11.17;;;8.13;;
6485;SDS011;3276;48.490;9.222;2024-01-15T02:26:04;19.37;;;7.70;;
6485;SDS011;3276;48.490;9.222;2024-01-15T02:28:31;16.83;;;9.38;;
6485;SDS011;3276;48.490;9.222;2024-01-15T02:30:58;11.32;;;6.60;;
6485;SDS011;3276;48.490;9.222;2024-01-15T02:33:23;14.63;;;7.57;;
6485;SDS011;3276;48.490;9.222;2024-01-15T02:35:49;14.37;;;8.37;;
6485;SDS011;3276;48.490;9.222;2024-01-15T02:38:15;14.53;;;7.53;;
6485;SDS011;3276;48.490;9.222;2024-01-15T02:40:41;16.63;;;7.75;;
6485;SDS011;3276;48.490;9.222;2024-01-15T02:43:06;15.07;;;8.03;;
6485;SDS011;3276;48.490;9.222;2024-01-15T02:45:32;12.30;;;6.60;;
6485;SDS011;3276;48.490;9.222;2024-01-15T02:47:58;13.33;;;7.47;;
6485;SDS011;3276;48.490;9.222;2024-01-15T02:50:23;12.40;;;6.80;;
6485;SDS011;3276;48.490;9.222;2024-01-15T02:52:49;13.50;;;8.97;;
6485;SDS011;3276;48.490;9.222;2024-01-15T02:55:15;13.00;;;8.27;;
6485;SDS011;3276;48.490;9.222;2024-01-15T02:57:41;11.53;;;7.00;;
6485;SDS011;3276;48.490;9.222;2024-01-15T03:00:06;18.73;;;7.63;;
6485;SDS011;3276;48.490;9.222;2024-01-15T03:02:32;16.77;;;6.75;;
6485;SDS011;3276;48.490;9.222;2024-01-15T03:05:02;21.83;;;9.30;;
6485;SDS011;3276;48.490;9.222;2024-01-15T03:07:27;18.43;;;8.73;;
6485;SDS011;3276;48.490;9.222;2024-01-15T03:09:53;13.67;;;7.87;;
6485;SDS011;3276;48.490;9.222;2024-01-15T03:12:19;15.00;;;8.00;;
6485;SDS011;3276;48.490;9.222;2024-01-15T03:14:44;13.67;;;7.47;;
6485;SDS011;3276;48.490;9.222;2024-01-15T03:17:13;17.43;;;7.40;;
6485;SDS011;3276;48.490;9.222;2024-01-15T03:19:38;13.73;;;5.78;;
6485;SDS011;3276;48.490;9.222;2024-01-15T03:22:04;16.37;;;7.20;;
6485;SDS011;3276;48.490;9.222;2024-01-15T03:24:32;14.67;;;8.60;;
6485;SDS011;3276;48.490;9.222;2024-01-15T03:26:58;14.82;;;6.88;;
6485;SDS011;3276;48.490;9.222;2024-01-15T03:29:23;12.57;;;6.87;;
6485;SDS011;3276;48.490;9.222;2024-01-15T03:31:49;11.63;;;6.23;;
6485;SDS011;3276;48.490;9.222;2024-01-15T03:34:15;13.87;;;7.00;;
6485;SDS011;3276;48.490;9.222;2024-01-15T03:36:40;18.07;;;8.80;;
6485;SDS011;3276;48.490;9.222;2024-01-15T03:39:06;10.57;;;6.07;;
6485;SDS011;3276;48.490;9.222;2024-01-15T03:41:32;14.00;;;8.25;;
6485;SDS011;3276;48.490;9.222;2024-01-15T03:43:58;14.50;;;7.70;;
6485;SDS011;3276;48.490;9.222;2024-01-15T03:46:24;11.60;;;6.80;;
6485;SDS011;3276;48.490;9.222;2024-01-15T03:48:49;18.30;;;8.23;;
6485;SDS011;3276;48.490;9.222;2024-01-15T03:51:17;10.60;;;7.33;;
6485;SDS011;3276;48.490;9.222;2024-01-15T03:53:42;15.13;;;7.38;;
6485;SDS011;3276;48.490;9.222;2024-01-15T03:56:08;14.20;;;7.67;;
6485;SDS011;3276;48.490;9.222;2024-01-15T03:58:34;14.00;;;7.27;;
6485;SDS011;3276;48.490;9.222;2024-01-15T04:01:02;14.90;;;7.63;;
6485;SDS011;3276;48.490;9.222;2024-01-15T04:03:28;13.60;;;7.87;;
6485;SDS011;3276;48.490;9.222;2024-01-15T04:05:54;18.43;;;8.73;;
6485;SDS011;3276;48.490;9.222;2024-01-15T04:08:22;15.45;;;7.78;;
6485;SDS011;3276;48.490;9.222;2024-01-15T04:10:47;16.37;;;7.93;;
6485;SDS011;3276;48.490;9.222;2024-01-15T04:13:13;15.40;;;7.87;;
6485;SDS011;3276;48.490;9.222;2024-01-15T04:15:38;15.73;;;8.20;;
6485;SDS011;3276;48.490;9.222;2024-01-15T04:18:04;17.17;;;7.90;;
6485;SDS011;3276;48.490;9.222;2024-01-15T04:20:30;14.18;;;7.97;;
6485;SDS011;3276;48.490;9.222;2024-01-15T04:22:56;17.60;;;9.07;;
6485;SDS011;3276;48.490;9.222;2024-01-15T04:25:25;15.60;;;8.55;;
6485;SDS011;3276;48.490;9.222;2024-01-15T04:27:50;16.70;;;7.43;;
6485;SDS011;3276;48.490;9.222;2024-01-15T04:30:16;14.60;;;8.80;;
6485;SDS011;3276;48.490;9.222;2024-01-15T04:32:41;13.70;;;8.40;;
6485;SDS011;3276;48.490;9.222;2024-01-15T04:35:07;11.50;;;7.17;;
6485;SDS011;3276;48.490;9.222;2024-01-15T04:37:32;17.50;;;9.33;;
6485;SDS011;3276;48.490;9.222;2024-01-15T04:39:58;13.90;;;9.20;;
6485;SDS011;3276;48.490;9.222;2024-01-15T04:42:23;15.60;;;9.17;;
6485;SDS011;3276;48.490;9.222;2024-01-15T04:44:49;14.07;;;8.77;;
6485;SDS011;3276;48.490;9.222;2024-01-15T04:47:15;16.20;;;8.10;;
6485;SDS011;3276;48.490;9.222;2024-01-15T04:49:40;14.60;;;9.63;;
6485;SDS011;3276;48.490;9.222;2024-01-15T04:52:06;11.03;;;7.13;;
6485;SDS011;3276;48.490;9.222;2024-01-15T04:54:34;22.47;;;8.83;;
6485;SDS011;3276;48.490;9.222;2024-01-15T04:57:00;15.35;;;7.55;;
6485;SDS011;3276;48.490;9.222;2024-01-15T04:59:25;17.23;;;9.30;;
6485;SDS011;3276;48.490;9.222;2024-01-15T05:01:51;15.87;;;8.60;;
6485;SDS011;3276;48.490;9.222;2024-01-15T05:04:16;16.17;;;8.70;;
6485;SDS011;3276;48.490;9.222;2024-01-15T05:06:42;12.50;;;8.00;;
6485;SDS011;3276;48.490;9.222;2024-01-15T05:09:08;16.10;;;10.47;;
6485;SDS011;3276;48.490;9.222;2024-01-15T05:11:33;16.43;;;9.20;;
6485;SDS011;3276;48.490;9.222;2024-01-15T05:13:59;20.23;;;9.20;;
6485;SDS011;3276;48.490;9.222;2024-01-15T05:16:25;19.87;;;9.67;;
6485;SDS011;3276;48.490;9.222;2024-01-15T05:18:50;16.40;;;8.97;;
6485;SDS011;3276;48.490;9.222;2024-01-15T05:21:16;15.30;;;8.97;;
6485;SDS011;3276;48.490;9.222;2024-01-15T05:23:41;23.90;;;9.90;;
6485;SDS011;3276;48.490;9.222;2024-01-15T05:26:07;19.97;;;9.93;;
6485;SDS011;3276;48.490;9.222;2024-01-15T05:28:34;14.02;;;8.27;;
6485;SDS011;3276;48.490;9.222;2024-01-15T05:30:59;13.77;;;8.63;;
6485;SDS011;3276;48.490;9.222;2024-01-15T05:33:25;19.77;;;10.00;;
6485;SDS011;3276;48.490;9.222;2024-01-15T05:35:50;17.50;;;7.90;;
6485;SDS011;3276;48.490;9.222;2024-01-15T05:38:16;18.00;;;10.07;;
6485;SDS011;3276;48.490;9.222;2024-01-15T05:40:42;15.00;;;9.30;;
6485;SDS011;3276;48.490;9.222;2024-01-15T05:43:08;15.23;;;8.20;;
6485;SDS011;3276;48.490;9.222;2024-01-15T05:45:34;14.90;;;8.67;;
6485;SDS011;3276;48.490;9.222;2024-01-15T05:48:00;14.23;;;8.48;;
6485;SDS011;3276;48.490;9.222;2024-01-15T05:50:26;14.83;;;9.90;;
6485;SDS011;3276;48.490;9.222;2024-01-15T05:52:51;19.20;;;10.00;;
6485;SDS011;3276;48.490;9.222;2024-01-15T05:55:17;12.70;;;7.13;;
6485;SDS011;3276;48.490;9.222;2024-01-15T05:57:43;12.23;;;7.47;;
6485;SDS011;3276;48.490;9.222;2024-01-15T06:00:09;11.65;;;8.75;;
6485;SDS011;3276;48.490;9.222;2024-01-15T06:02:37;16.73;;;10.63;;
6485;SDS011;3276;48.490;9.222;2024-01-15T06:05:03;16.75;;;8.10;;
6485;SDS011;3276;48.490;9.222;2024-01-15T06:07:29;10.63;;;6.77;;
6485;SDS011;3276;48.490;9.222;2024-01-15T06:09:54;16.93;;;8.70;;
6485;SDS011;3276;48.490;9.222;2024-01-15T06:12:22;15.43;;;9.85;;
6485;SDS011;3276;48.490;9.222;2024-01-15T06:14:47;12.98;;;8.25;;
6485;SDS011;3276;48.490;9.222;2024-01-15T06:17:13;14.17;;;8.33;;
6485;SDS011;3276;48.490;9.222;2024-01-15T06:19:39;15.47;;;9.17;;
6485;SDS011;3276;48.490;9.222;2024-01-15T06:22:04;20.00;;;9.87;;
6485;SDS011;3276;48.490;9.222;2024-01-15T06:24:30;16.03;;;9.37;;
6485;SDS011;3276;48.490;9.222;2024-01-15T06:26:55;13.80;;;8.93;;
6485;SDS011;3276;48.490;9.222;2024-01-15T06:29:21;17.37;;;9.83;;
6485;SDS011;3276;48.490;9.222;2024-01-15T06:31:46;18.73;;;9.40;;
6485;SDS011;3276;48.490;9.222;2024-01-15T06:34:12;13.80;;;8.90;;
6485;SDS011;3276;48.490;9.222;2024-01-15T06:36:37;21.00;;;11.50;;
6485;SDS011;3276;48.490;9.222;2024-01-15T06:39:03;14.93;;;9.17;;
6485;SDS011;3276;48.490;9.222;2024-01-15T06:41:29;12.93;;;7.70;;
6485;SDS011;3276;48.490;9.222;2024-01-15T06:43:54;17.80;;;9.67;;
6485;SDS011;3276;48.490;9.222;2024-01-15T06:46:21;11.87;;;8.23;;
6485;SDS011;3276;48.490;9.222;2024-01-15T06:48:47;16.00;;;8.50;;
6485;SDS011;3276;48.490;9.222;2024-01-15T06:51:12;14.60;;;8.90;;
6485;SDS011;3276;48.490;9.222;2024-01-15T06:53:39;14.60;;;9.13;;
6485;SDS011;3276;48.490;9.222;2024-01-15T06:56:04;15.00;;;8.63;;
6485;SDS011;3276;48.490;9.222;2024-01-15T06:58:33;18.03;;;9.60;;
6485;SDS011;3276;48.490;9.222;2024-01-15T07:00:58;20.45;;;9.05;;
6485;SDS011;3276;48.490;9.222;2024-01-15T07:03:25;14.38;;;9.80;;
6485;SDS011;3276;48.490;9.222;2024-01-15T07:05:50;12.90;;;7.37;;
6485;SDS011;3276;48.490;9.222;2024-01-15T07:08:16;14.00;;;7.70;;
6485;SDS011;3276;48.490;9.222;2024-01-15T07:10:41;17.80;;;9.30;;
6485;SDS011;3276;48.490;9.222;2024-01-15T07:13:08;15.37;;;10.20;;
6485;SDS011;3276;48.490;9.222;2024-01-15T07:15:34;18.35;;;9.98;;
6485;SDS011;3276;48.490;9.222;2024-01-15T07:17:59;15.17;;;9.83;;
6485;SDS011;3276;48.490;9.222;2024-01-15T07:20:25;16.40;;;10.50;;
6485;SDS011;3276;48.490;9.222;2024-01-15T07:22:51;16.70;;;9.53;;
6485;SDS011;3276;48.490;9.222;2024-01-15T07:25:16;14.93;;;7.83;;
6485;SDS011;3276;48.490;9.222;2024-01-15T07:27:42;21.80;;;10.30;;
6485;SDS011;3276;48.490;9.222;2024-01-15T07:30:09;14.75;;;7.70;;
6485;SDS011;3276;48.490;9.222;2024-01-15T07:32:36;12.60;;;8.10;;
6485;SDS011;3276;48.490;9.222;2024-01-15T07:35:02;12.33;;;7.80;;
6485;SDS011;3276;48.490;9.222;2024-01-15T07:37:27;12.40;;;7.20;;
6485;SDS011;3276;48.490;9.222;2024-01-15T07:39:53;12.10;;;7.20;;
6485;SDS011;3276;48.490;9.222;2024-01-15T07:42:19;14.47;;;7.10;;
6485;SDS011;3276;48.490;9.222;2024-01-15T07:44:44;8.77;;;4.90;;
6485;SDS011;3276;48.490;9.222;2024-01-15T07:47:10;13.80;;;7.23;;
6485;SDS011;3276;48.490;9.222;2024-01-15T07:49:35;10.23;;;5.30;;
6485;SDS011;3276;48.490;9.222;2024-01-15T07:52:01;11.13;;;5.43;;
6485;SDS011;3276;48.490;9.222;2024-01-15T07:54:27;7.90;;;5.82;;
6485;SDS011;3276;48.490;9.222;2024-01-15T07:56:59;7.80;;;4.10;;
6485;SDS011;3276;48.490;9.222;2024-01-15T07:59:28;14.50;;;6.10;;
6485;SDS011;3276;48.490;9.222;2024-01-15T08:01:53;8.67;;;4.70;;
6485;SDS011;3276;48.490;9.222;2024-01-15T08:04:19;6.63;;;4.83;;
6485;SDS011;3276;48.490;9.222;2024-01-15T08:06:45;9.60;;;6.38;;
6485;SDS011;3276;48.490;9.222;2024-01-15T08:09:11;9.63;;;5.17;;
6485;SDS011;3276;48.490;9.222;2024-01-15T08:11:40;7.00;;;4.05;;
6485;SDS011;3276;48.490;9.222;2024-01-15T08:14:06;8.93;;;4.63;;
6485;SDS011;3276;48.490;9.222;2024-01-15T08:16:32;10.00;;;4.53;;
6485;SDS011;3276;48.490;9.222;2024-01-15T08:18:58;10.03;;;5.20;;
6485;SDS011;3276;48.490;9.222;2024-01-15T08:21:24;5.33;;;3.57;;
6485;SDS011;3276;48.490;9.222;2024-01-15T08:23:49;7.90;;;4.20;;
6485;SDS011;3276;48.490;9.222;2024-01-15T08:26:15;6.23;;;3.87;;
6485;SDS011;3276;48.490;9.222;2024-01-15T08:28:41;4.30;;;2.60;;
6485;SDS011;3276;48.490;9.222;2024-01-15T08:31:09;5.30;;;3.60;;
6485;SDS011;3276;48.490;9.222;2024-01-15T08:33:35;4.97;;;3.30;;
6485;SDS011;3276;48.490;9.222;2024-01-15T08:36:04;6.17;;;4.70;;
6485;SDS011;3276;48.490;9.222;2024-01-15T08:38:30;5.18;;;3.28;;
6485;SDS011;3276;48.490;9.222;2024-01-15T08:40:56;9.63;;;3.80;;
6485;SDS011;3276;48.490;9.222;2024-01-15T08:43:24;6.53;;;3.90;;
6485;SDS011;3276;48.490;9.222;2024-01-15T08:45:49;8.13;;;3.33;;
6485;SDS011;3276;48.490;9.222;2024-01-15T08:48:16;8.82;;;3.75;;
6485;SDS011;3276;48.490;9.222;2024-01-15T08:50:41;4.50;;;3.17;;
6485;SDS011;3276;48.490;9.222;2024-01-15T08:53:07;4.80;;;3.13;;
6485;SDS011;3276;48.490;9.222;2024-01-15T08:55:32;8.10;;;4.17;;
6485;SDS011;3276;48.490;9.222;2024-01-15T08:57:58;6.05;;;3.47;;
6485;SDS011;3276;48.490;9.222;2024-01-15T09:00:24;7.17;;;3.37;;
6485;SDS011;3276;48.490;9.222;2024-01-15T09:02:49;5.50;;;2.20;;
6485;SDS011;3276;48.490;9.222;2024-01-15T09:05:15;5.27;;;3.40;;
6485;SDS011;3276;48.490;9.222;2024-01-15T09:07:41;3.70;;;2.57;;
6485;SDS011;3276;48.490;9.222;2024-01-15T09:10:06;4.43;;;3.37;;
6485;SDS011;3276;48.490;9.222;2024-01-15T09:12:32;3.10;;;2.20;;
6485;SDS011;3276;48.490;9.222;2024-01-15T09:14:57;7.23;;;4.40;;
6485;SDS011;3276;48.490;9.222;2024-01-15T09:17:23;5.03;;;2.43;;
6485;SDS011;3276;48.490;9.222;2024-01-15T09:19:49;4.27;;;2.20;;
6485;SDS011;3276;48.490;9.222;2024-01-15T09:22:15;3.20;;;2.23;;
6485;SDS011;3276;48.490;9.222;2024-01-15T09:24:43;8.35;;;4.32;;
6485;SDS011;3276;48.490;9.222;2024-01-15T09:27:12;3.47;;;2.70;;
6485;SDS011;3276;48.490;9.222;2024-01-15T09:29:38;6.40;;;2.40;;
6485;SDS011;3276;48.490;9.222;2024-01-15T09:32:06;3.78;;;2.53;;
6485;SDS011;3276;48.490;9.222;2024-01-15T09:34:32;4.45;;;2.53;;
6485;SDS011;3276;48.490;9.222;2024-01-15T09:37:00;4.82;;;2.95;;
6485;SDS011;3276;48.490;9.222;2024-01-15T09:39:27;4.85;;;2.47;;
6485;SDS011;3276;48.490;9.222;2024-01-15T09:41:53;2.67;;;2.03;;
6485;SDS011;3276;48.490;9.222;2024-01-15T09:44:19;13.13;;;2.70;;
6485;SDS011;3276;48.490;9.222;2024-01-15T09:46:49;3.80;;;2.03;;
6485;SDS011;3276;48.490;9.222;2024-01-15T09:49:16;4.40;;;2.67;;
6485;SDS011;3276;48.490;9.222;2024-01-15T09:51:42;3.72;;;2.33;;
6485;SDS011;3276;48.490;9.222;2024-01-15T09:54:09;4.45;;;2.63;;
6485;SDS011;3276;48.490;9.222;2024-01-15T09:56:38;3.30;;;2.10;;
6485;SDS011;3276;48.490;9.222;2024-01-15T09:59:04;3.00;;;1.90;;
6485;SDS011;3276;48.490;9.222;2024-01-15T10:01:31;5.57;;;2.85;;
6485;SDS011;3276;48.490;9.222;2024-01-15T10:03:57;5.30;;;2.77;;
6485;SDS011;3276;48.490;9.222;2024-01-15T10:06:24;4.63;;;2.40;;
6485;SDS011;3276;48.490;9.222;2024-01-15T10:08:52;5.57;;;2.38;;
6485;SDS011;3276;48.490;9.222;2024-01-15T10:11:20;4.30;;;3.10;;
6485;SDS011;3276;48.490;9.222;2024-01-15T10:13:46;4.60;;;2.10;;
6485;SDS011;3276;48.490;9.222;2024-01-15T10:16:12;5.43;;;3.17;;
6485;SDS011;3276;48.490;9.222;2024-01-15T10:18:38;4.43;;;2.00;;
6485;SDS011;3276;48.490;9.222;2024-01-15T10:21:07;3.67;;;1.90;;
6485;SDS011;3276;48.490;9.222;2024-01-15T10:23:33;5.43;;;3.10;;
6485;SDS011;3276;48.490;9.222;2024-01-15T10:25:59;3.33;;;2.10;;
6485;SDS011;3276;48.490;9.222;2024-01-15T10:28:27;4.28;;;2.63;;
6485;SDS011;3276;48.490;9.222;2024-01-15T10:30:55;7.72;;;2.70;;
6485;SDS011;3276;48.490;9.222;2024-01-15T10:33:23;4.40;;;3.00;;
6485;SDS011;3276;48.490;9.222;2024-01-15T10:35:55;5.35;;;2.72;;
6485;SDS011;3276;48.490;9.222;2024-01-15T10:38:21;6.20;;;2.92;;
6485;SDS011;3276;48.490;9.222;2024-01-15T10:40:50;3.33;;;2.67;;
6485;SDS011;3276;48.490;9.222;2024-01-15T10:43:17;4.93;;;2.35;;
6485;SDS011;3276;48.490;9.222;2024-01-15T10:45:44;6.37;;;4.60;;
6485;SDS011;3276;48.490;9.222;2024-01-15T10:48:10;6.18;;;3.65;;
6485;SDS011;3276;48.490;9.222;2024-01-15T10:50:36;5.30;;;3.10;;
6485;SDS011;3276;48.490;9.222;2024-01-15T10:53:02;5.73;;;3.80;;
6485;SDS011;3276;48.490;9.222;2024-01-15T10:55:29;22.13;;;12.73;;
6485;SDS011;3276;48.490;9.222;2024-01-15T10:57:55;12.03;;;7.53;;
6485;SDS011;3276;48.490;9.222;2024-01-15T11:00:22;8.65;;;5.32;;
6485;SDS011;3276;48.490;9.222;2024-01-15T11:02:47;6.13;;;5.20;;
6485;SDS011;3276;48.490;9.222;2024-01-15T11:05:13;7.17;;;5.87;;
6485;SDS011;3276;48.490;9.222;2024-01-15T11:07:39;5.63;;;3.90;;
6485;SDS011;3276;48.490;9.222;2024-01-15T11:10:06;6.28;;;5.18;;
6485;SDS011;3276;48.490;9.222;2024-01-15T11:12:35;6.70;;;5.82;;
6485;SDS011;3276;48.490;9.222;2024-01-15T11:15:01;5.30;;;3.10;;
6485;SDS011;3276;48.490;9.222;2024-01-15T11:20:30;5.18;;;3.78;;
6485;SDS011;3276;48.490;9.222;2024-01-15T11:22:57;4.00;;;1.90;;
6485;SDS011;3276;48.490;9.222;2024-01-15T11:25:24;6.15;;;3.42;;
6485;SDS011;3276;48.490;9.222;2024-01-15T11:28:00;13.18;;;4.25;;
6485;SDS011;3276;48.490;9.222;2024-01-15T11:30:25;5.30;;;3.13;;
6485;SDS011;3276;48.490;9.222;2024-01-15T11:32:51;3.40;;;2.33;;
6485;SDS011;3276;48.490;9.222;2024-01-15T11:35:17;6.47;;;4.30;;
6485;SDS011;3276;48.490;9.222;2024-01-15T11:37:56;6.60;;;4.57;;
6485;SDS011;3276;48.490;9.222;2024-01-15T11:43:00;4.15;;;2.50;;
6485;SDS011;3276;48.490;9.222;2024-01-15T11:45:28;4.43;;;2.25;;
6485;SDS011;3276;48.490;9.222;2024-01-15T11:50:45;6.57;;;2.78;;
6485;SDS011;3276;48.490;9.222;2024-01-15T11:53:21;3.92;;;2.63;;
6485;SDS011;3276;48.490;9.222;2024-01-15T11:55:53;4.57;;;2.60;;
6485;SDS011;3276;48.490;9.222;2024-01-15T11:58:23;6.68;;;2.58;;
6485;SDS011;3276;48.490;9.222;2024-01-15T12:00:48;4.50;;;3.27;;
6485;SDS011;3276;48.490;9.222;2024-01-15T12:03:15;3.22;;;2.50;;
6485;SDS011;3276;48.490;9.222;2024-01-15T12:05:41;9.03;;;3.93;;
6485;SDS011;3276;48.490;9.222;2024-01-15T12:08:07;4.18;;;2.70;;
6485;SDS011;3276;48.490;9.222;2024-01-15T12:10:39;5.20;;;4.65;;
6485;SDS011;3276;48.490;9.222;2024-01-15T12:13:09;6.78;;;3.47;;
6485;SDS011;3276;48.490;9.222;2024-01-15T12:15:35;3.67;;;2.85;;
6485;SDS011;3276;48.490;9.222;2024-01-15T12:18:01;6.55;;;3.65;;
6485;SDS011;3276;48.490;9.222;2024-01-15T12:20:31;7.93;;;3.50;;
6485;SDS011;3276;48.490;9.222;2024-01-15T12:22:57;4.50;;;2.35;;
6485;SDS011;3276;48.490;9.222;2024-01-15T12:25:23;7.63;;;4.53;;
6485;SDS011;3276;48.490;9.222;2024-01-15T12:27:50;8.95;;;3.88;;
6485;SDS011;3276;48.490;9.222;2024-01-15T12:30:17;6.68;;;3.15;;
6485;SDS011;3276;48.490;9.222;2024-01-15T12:32:43;4.45;;;3.95;;
6485;SDS011;3276;48.490;9.222;2024-01-15T12:35:12;7.27;;;3.20;;
6485;SDS011;3276;48.490;9.222;2024-01-15T12:37:41;3.88;;;2.35;;
6485;SDS011;3276;48.490;9.222;2024-01-15T12:40:08;6.38;;;4.40;;
6485;SDS011;3276;48.490;9.222;2024-01-15T12:42:36;9.68;;;4.72;;
6485;SDS011;3276;48.490;9.222;2024-01-15T12:45:02;4.88;;;3.47;;
6485;SDS011;3276;48.490;9.222;2024-01-15T12:47:30;3.53;;;2.30;;
6485;SDS011;3276;48.490;9.222;2024-01-15T12:49:57;5.10;;;3.17;;
6485;SDS011;3276;48.490;9.222;2024-01-15T12:52:26;6.55;;;3.80;;
6485;SDS011;3276;48.490;9.222;2024-01-15T12:54:52;4.47;;;3.20;;
6485;SDS011;3276;48.490;9.222;2024-01-15T12:57:18;7.63;;;4.00;;
6485;SDS011;3276;48.490;9.222;2024-01-15T12:59:44;10.30;;;4.70;;
6485;SDS011;3276;48.490;9.222;2024-01-15T13:02:10;6.43;;;3.35;;
6485;SDS011;3276;48.490;9.222;2024-01-15T13:04:39;5.53;;;3.08;;
6485;SDS011;3276;48.490;9.222;2024-01-15T13:07:05;9.10;;;3.20;;
6485;SDS011;3276;48.490;9.222;2024-01-15T13:09:31;4.70;;;3.10;;
6485;SDS011;3276;48.490;9.222;2024-01-15T13:11:58;3.65;;;2.90;;
6485;SDS011;3276;48.490;9.222;2024-01-15T13:14:23;5.83;;;2.80;;
6485;SDS011;3276;48.490;9.222;2024-01-15T13:16:49;6.50;;;3.87;;
6485;SDS011;3276;48.490;9.222;2024-01-15T13:19:14;5.93;;;3.60;;
6485;SDS011;3276;48.490;9.222;2024-01-15T13:21:40;8.80;;;4.77;;
6485;SDS011;3276;48.490;9.222;2024-01-15T13:24:06;6.85;;;3.97;;
6485;SDS011;3276;48.490;9.222;2024-01-15T13:26:32;7.53;;;3.33;;
6485;SDS011;3276;48.490;9.222;2024-01-15T13:28:59;7.60;;;4.07;;
6485;SDS011;3276;48.490;9.222;2024-01-15T13:31:26;6.40;;;3.90;;
6485;SDS011;3276;48.490;9.222;2024-01-15T13:33:52;5.47;;;4.00;;
6485;SDS011;3276;48.490;9.222;2024-01-15T13:36:18;8.07;;;3.50;;
6485;SDS011;3276;48.490;9.222;2024-01-15T13:38:46;6.45;;;4.00;;
6485;SDS011;3276;48.490;9.222;2024-01-15T13:41:11;7.03;;;3.90;;
6485;SDS011;3276;48.490;9.222;2024-01-15T13:43:37;7.73;;;4.90;;
6485;SDS011;3276;48.490;9.222;2024-01-15T13:46:03;6.10;;;3.90;;
6485;SDS011;3276;48.490;9.222;2024-01-15T13:48:30;6.70;;;4.30;;
6485;SDS011;3276;48.490;9.222;2024-01-15T13:50:56;7.50;;;4.22;;
6485;SDS011;3276;48.490;9.222;2024-01-15T13:53:22;8.40;;;4.10;;
6485;SDS011;3276;48.490;9.222;2024-01-15T13:55:48;8.63;;;4.77;;
6485;SDS011;3276;48.490;9.222;2024-01-15T13:58:13;10.80;;;5.03;;
6485;SDS011;3276;48.490;9.222;2024-01-15T14:00:39;6.10;;;4.03;;
6485;SDS011;3276;48.490;9.222;2024-01-15T14:03:05;13.68;;;8.07;;
6485;SDS011;3276;48.490;9.222;2024-01-15T14:05:30;8.60;;;5.70;;
6485;SDS011;3276;48.490;9.222;2024-01-15T14:07:56;7.83;;;5.30;;
6485;SDS011;3276;48.490;9.222;2024-01-15T14:10:21;5.93;;;4.53;;
6485;SDS011;3276;48.490;9.222;2024-01-15T14:12:47;5.83;;;4.83;;
6485;SDS011;3276;48.490;9.222;2024-01-15T14:15:12;7.43;;;4.70;;
6485;SDS011;3276;48.490;9.222;2024-01-15T14:17:38;6.10;;;4.13;;
6485;SDS011;3276;48.490;9.222;2024-01-15T14:20:04;12.10;;;6.70;;
6485;SDS011;3276;48.490;9.222;2024-01-15T14:22:31;10.43;;;4.80;;
6485;SDS011;3276;48.490;9.222;2024-01-15T14:24:56;9.47;;;4.40;;
6485;SDS011;3276;48.490;9.222;2024-01-15T14:27:22;10.37;;;5.40;;
6485;SDS011;3276;48.490;9.222;2024-01-15T14:29:47;8.23;;;5.40;;
6485;SDS011;3276;48.490;9.222;2024-01-15T14:32:13;6.20;;;4.50;;
6485;SDS011;3276;48.490;9.222;2024-01-15T14:34:39;8.60;;;5.63;;
6485;SDS011;3276;48.490;9.222;2024-01-15T14:37:04;9.00;;;6.53;;
6485;SDS011;3276;48.490;9.222;2024-01-15T14:39:31;8.57;;;5.85;;
6485;SDS011;3276;48.490;9.222;2024-01-15T14:41:59;9.18;;;5.13;;
6485;SDS011;3276;48.490;9.222;2024-01-15T14:44:24;8.47;;;4.53;;
6485;SDS011;3276;48.490;9.222;2024-01-15T14:46:50;9.53;;;6.10;;
6485;SDS011;3276;48.490;9.222;2024-01-15T14:49:15;9.30;;;5.57;;
6485;SDS011;3276;48.490;9.222;2024-01-15T14:51:42;7.82;;;5.00;;
6485;SDS011;3276;48.490;9.222;2024-01-15T14:54:09;8.98;;;5.28;;
6485;SDS011;3276;48.490;9.222;2024-01-15T14:56:35;7.43;;;5.13;;
6485;SDS011;3276;48.490;9.222;2024-01-15T14:59:00;10.73;;;5.50;;
6485;SDS011;3276;48.490;9.222;2024-01-15T15:01:26;9.10;;;5.30;;
6485;SDS011;3276;48.490;9.222;2024-01-15T15:03:52;7.57;;;4.27;;
6485;SDS011;3276;48.490;9.222;2024-01-15T15:06:17;8.10;;;4.77;;
6485;SDS011;3276;48.490;9.222;2024-01-15T15:08:43;7.97;;;4.53;;
6485;SDS011;3276;48.490;9.222;2024-01-15T15:11:09;6.17;;;4.50;;